Time;durP1;ratioP1;P1;durP2;ratioP2;P2;SDS_P1;SDS_P2;PMS_P1;PMS_P2;Temp;Humidity;BMP_temperature;BMP_pressure;BME280_temperature;BME280_humidity;BME280_pressure;Samples;Min_cycle;Max_cycle;Signal;HPM_P1;HPM_P2
2024/01/21 00:00:17;;;;;;;6.15;2.70;;;;;;;2.64;71.51;99701.13;5003552;28;20497;-54
2024/01/21 00:02:45;;;;;;;2.95;1.38;;;;;;;2.67;72.08;99691.00;5000071;28;20395;-51
2024/01/21 00:05:12;;;;;;;6.05;1.80;;;;;;;2.67;71.36;99694.38;4992536;28;20411;-50
2024/01/21 00:07:39;;;;;;;5.88;2.08;;;;;;;2.73;71.06;99686.00;4991029;28;20074;-47
2024/01/21 00:10:09;;;;;;;3.63;3.25;;;;;;;2.68;71.65;99688.47;4995112;28;20043;-52
2024/01/21 00:12:37;;;;;;;3.88;1.48;;;;;;;2.70;71.27;99662.91;4997656;28;20050;-49
2024/01/21 00:15:04;;;;;;;4.63;1.70;;;;;;;2.71;72.51;99687.69;4996632;28;20141;-51
2024/01/21 00:17:33;;;;;;;5.28;4.35;;;;;;;2.67;72.74;99673.94;4990466;28;20049;-51
2024/01/21 00:19:59;;;;;;;9.63;2.15;;;;;;;2.75;71.24;99671.56;4994725;28;20077;-52
2024/01/21 00:22:27;;;;;;;4.00;1.42;;;;;;;2.72;71.97;99652.72;5011164;28;20049;-53
2024/01/21 00:24:54;;;;;;;4.55;2.10;;;;;;;2.74;72.68;99682.63;5015054;28;20044;-51
2024/01/21 00:27:21;;;;;;;3.95;1.73;;;;;;;2.70;72.90;99653.56;4999371;28;20142;-47
2024/01/21 00:29:48;;;;;;;5.25;2.65;;;;;;;2.70;71.45;99640.75;5008716;28;20061;-47
2024/01/21 00:32:15;;;;;;;7.78;1.70;;;;;;;2.70;71.93;99645.00;5004222;28;20054;-49
2024/01/21 00:34:42;;;;;;;3.83;1.60;;;;;;;2.73;72.76;99639.97;5008139;28;20054;-51
2024/01/21 00:37:10;;;;;;;2.45;1.85;;;;;;;2.74;72.76;99631.47;5004087;28;20049;-50
2024/01/21 00:39:36;;;;;;;6.10;2.05;;;;;;;2.73;72.31;99642.53;5008284;28;20089;-49
2024/01/21 00:42:03;;;;;;;5.88;2.75;;;;;;;2.73;72.24;99619.50;5011145;28;20077;-49
2024/01/21 00:44:36;;;;;;;3.15;2.00;;;;;;;2.73;72.30;99614.38;5001310;28;20048;-53
2024/01/21 00:47:05;;;;;;;3.30;1.50;;;;;;;2.75;71.58;99617.84;5003420;28;20129;-52
2024/01/21 00:49:33;;;;;;;5.95;1.55;;;;;;;2.78;71.67;99612.81;5002868;28;20099;-51
2024/01/21 00:52:00;;;;;;;5.13;2.00;;;;;;;2.80;71.50;99606.03;5000468;28;20046;-53
2024/01/21 00:54:26;;;;;;;8.02;2.85;;;;;;;2.81;71.63;99597.50;5007679;28;20056;-50
2024/01/21 00:56:54;;;;;;;2.83;1.70;;;;;;;2.80;72.35;99594.91;5002513;28;20147;-49
2024/01/21 00:59:21;;;;;;;5.57;2.28;;;;;;;2.83;71.91;99606.09;4998958;28;20049;-47
2024/01/21 01:01:48;;;;;;;7.07;2.40;;;;;;;2.84;72.88;99594.19;5004425;28;20052;-50
2024/01/21 01:04:15;;;;;;;4.60;2.75;;;;;;;2.85;72.81;99578.00;5003911;28;20402;-49
2024/01/21 01:06:42;;;;;;;5.30;2.35;;;;;;;2.88;72.91;99584.88;5005992;28;20141;-49
2024/01/21 01:09:09;;;;;;;6.15;2.10;;;;;;;2.82;73.04;99563.44;5002812;28;20533;-47
2024/01/21 01:11:37;;;;;;;2.70;1.42;;;;;;;2.89;73.52;99576.34;5001315;28;20054;-47
2024/01/21 01:14:05;;;;;;;7.97;2.45;;;;;;;2.91;73.26;99567.03;4998353;28;20145;-48
2024/01/21 01:16:41;;;;;;;4.75;2.05;;;;;;;2.90;74.02;99555.06;4997283;28;20078;-49
2024/01/21 01:19:11;;;;;;;5.25;2.13;;;;;;;2.99;74.08;99559.50;4998876;28;20050;-45
2024/01/21 01:21:39;;;;;;;6.57;2.42;;;;;;;2.93;74.18;99547.44;5000448;28;20056;-49
2024/01/21 01:24:07;;;;;;;7.28;1.42;;;;;;;2.96;74.60;99552.63;5000126;28;20050;-52
2024/01/21 01:26:34;;;;;;;5.90;2.28;;;;;;;2.94;75.60;99544.91;5001089;28;20050;-47
2024/01/21 01:29:01;;;;;;;3.00;1.65;;;;;;;2.98;75.73;99543.31;5019436;28;20060;-54
2024/01/21 01:31:30;;;;;;;3.33;1.83;;;;;;;3.00;75.96;99535.66;4996581;28;20054;-48
2024/01/21 01:33:58;;;;;;;3.78;2.08;;;;;;;3.03;75.39;99531.44;5000123;28;20046;-50
2024/01/21 01:36:30;;;;;;;4.47;3.90;;;;;;;3.03;76.47;99523.78;4996594;28;20128;-53
2024/01/21 01:38:58;;;;;;;10.05;2.95;;;;;;;2.99;76.75;99514.31;5002053;28;20042;-56
2024/01/21 01:41:26;;;;;;;8.93;3.05;;;;;;;3.02;77.66;99521.19;4996482;28;20514;-49
2024/01/21 01:43:53;;;;;;;3.03;1.25;;;;;;;3.06;77.81;99515.28;4998869;28;20047;-50
2024/01/21 01:46:21;;;;;;;1.80;1.00;;;;;;;3.12;77.44;99514.53;4999366;28;20501;-49
2024/01/21 01:48:51;;;;;;;3.78;2.50;;;;;;;3.10;77.59;99496.59;5000732;28;20538;-49
2024/01/21 01:51:20;;;;;;;6.75;1.70;;;;;;;3.13;77.20;99499.22;5001397;28;20065;-48
2024/01/21 01:53:47;;;;;;;4.55;1.85;;;;;;;3.17;77.32;99487.34;4996386;28;20047;-51
2024/01/21 01:56:14;;;;;;;2.90;1.60;;;;;;;3.16;77.80;99490.72;5000037;28;20548;-49
2024/01/21 01:58:43;;;;;;;4.97;2.05;;;;;;;3.17;77.96;99474.53;5004613;28;20443;-53
2024/01/21 02:01:10;;;;;;;2.35;1.65;;;;;;;3.14;78.21;99484.75;4997129;28;20050;-53
2024/01/21 02:03:37;;;;;;;10.10;2.85;;;;;;;3.14;77.53;99466.81;4999377;28;20054;-51
2024/01/21 02:06:04;;;;;;;4.18;1.95;;;;;;;3.19;77.49;99466.06;4998242;28;20038;-54
2024/01/21 02:08:31;;;;;;;19.92;3.72;;;;;;;3.22;78.07;99475.50;5003455;28;20042;-48
2024/01/21 02:10:57;;;;;;;5.13;1.17;;;;;;;3.28;77.67;99460.22;4992103;28;20037;-50
2024/01/21 02:13:24;;;;;;;7.40;3.45;;;;;;;3.28;78.15;99450.00;4997817;28;20050;-46
2024/01/21 02:15:52;;;;;;;3.15;1.73;;;;;;;3.22;78.67;99444.78;5001352;28;20042;-54
2024/01/21 02:18:19;;;;;;;5.85;2.15;;;;;;;3.27;79.41;99453.41;4997931;28;20421;-51
2024/01/21 02:20:45;;;;;;;6.53;2.67;;;;;;;3.25;79.82;99444.84;4998179;28;20788;-50
2024/01/21 02:23:12;;;;;;;8.73;3.80;;;;;;;3.26;78.83;99431.22;5004707;28;20081;-49
2024/01/21 02:25:39;;;;;;;4.72;2.33;;;;;;;3.25;80.20;99433.75;4997936;28;20041;-48
2024/01/21 02:28:06;;;;;;;3.50;1.67;;;;;;;3.31;79.54;99423.63;4995365;28;20046;-48
2024/01/21 02:30:36;;;;;;;4.07;2.60;;;;;;;3.30;79.92;99412.50;5001901;28;20056;-53
2024/01/21 02:33:03;;;;;;;;;;;;;;;3.30;80.83;99415.06;4997639;28;20054;-50
2024/01/21 02:35:30;;;;;;;5.93;1.92;;;;;;;3.34;80.11;99416.84;4998300;28;20587;-47
2024/01/21 02:37:57;;;;;;;6.68;2.22;;;;;;;3.32;81.49;99400.56;4999311;28;20042;-54
2024/01/21 02:40:24;;;;;;;3.13;2.45;;;;;;;3.33;81.79;99416.81;4997829;28;20069;-50
2024/01/21 02:42:51;;;;;;;6.55;3.25;;;;;;;3.35;81.31;99399.78;4988768;28;20141;-49
2024/01/21 02:45:18;;;;;;;7.90;3.05;;;;;;;3.43;81.51;99387.09;4996618;28;20048;-46
2024/01/21 02:47:46;;;;;;;5.97;4.07;;;;;;;3.44;81.92;99360.66;4996750;28;20509;-49
2024/01/21 02:50:13;;;;;;;6.22;3.42;;;;;;;3.46;81.64;99374.34;4996044;28;20137;-50
2024/01/21 02:52:40;;;;;;;4.97;3.10;;;;;;;3.53;82.22;99368.47;5002971;28;20050;-56
2024/01/21 02:55:07;;;;;;;3.90;2.42;;;;;;;3.56;81.52;99363.41;4995502;28;20049;-49
2024/01/21 02:57:35;;;;;;;7.95;3.45;;;;;;;3.58;81.84;99364.28;4994094;28;20057;-52
2024/01/21 03:00:04;;;;;;;5.72;2.75;;;;;;;3.63;82.09;99366.03;5007711;28;20054;-48
2024/01/21 03:02:31;;;;;;;6.80;3.35;;;;;;;3.64;81.92;99329.38;4991044;28;20479;-52
2024/01/21 03:04:58;;;;;;;3.55;2.40;;;;;;;3.71;82.03;99359.34;4998211;28;20061;-50
2024/01/21 03:07:26;;;;;;;4.72;2.50;;;;;;;3.75;81.79;99348.28;4993656;28;20049;-51
2024/01/21 03:09:53;;;;;;;7.45;2.78;;;;;;;3.75;82.48;99347.44;5001271;28;20516;-55
2024/01/21 03:12:20;;;;;;;4.82;2.40;;;;;;;3.81;82.63;99357.75;4992571;28;20134;-51
2024/01/21 03:14:47;;;;;;;5.68;2.15;;;;;;;3.88;82.49;99348.47;4998417;28;20077;-51
2024/01/21 03:17:13;;;;;;;5.35;2.55;;;;;;;3.91;81.92;99348.50;4994926;28;20060;-49
2024/01/21 03:19:40;;;;;;;5.55;2.65;;;;;;;3.91;82.35;99317.75;4992257;28;20050;-51
2024/01/21 03:22:07;;;;;;;6.38;2.75;;;;;;;3.90;82.88;99300.66;5003767;28;20045;-48
2024/01/21 03:24:34;;;;;;;9.57;4.30;;;;;;;3.86;83.58;99295.50;4992225;28;20089;-49
2024/01/21 03:27:01;;;;;;;4.60;2.80;;;;;;;3.92;82.82;99284.47;4995651;28;20539;-48
2024/01/21 03:29:28;;;;;;;11.05;2.90;;;;;;;3.94;83.03;99287.91;4998589;28;20050;-55
2024/01/21 03:31:55;;;;;;;5.82;2.95;;;;;;;4.01;83.45;99280.31;4991516;28;20057;-53
2024/01/21 03:34:22;;;;;;;4.88;4.35;;;;;;;4.04;83.18;99280.31;4995740;28;20057;-53
2024/01/21 03:36:49;;;;;;;6.38;2.92;;;;;;;4.07;83.04;99273.53;4995818;28;20046;-49
2024/01/21 03:39:17;;;;;;;8.93;4.45;;;;;;;4.04;83.37;99253.00;4996797;28;20053;-49
2024/01/21 03:41:47;;;;;;;5.22;2.70;;;;;;;4.10;83.68;99262.47;4998722;28;20089;-52
2024/01/21 03:44:15;;;;;;;6.18;3.38;;;;;;;4.15;83.99;99270.22;5003599;28;20058;-55
2024/01/21 03:46:42;;;;;;;5.32;2.83;;;;;;;4.20;83.86;99268.53;5001582;28;20069;-50
2024/01/21 03:49:09;;;;;;;4.50;2.95;;;;;;;4.24;83.60;99265.16;5002777;28;20066;-54
2024/01/21 03:51:35;;;;;;;5.32;2.95;;;;;;;4.33;83.66;99285.75;4996640;28;20078;-50
2024/01/21 03:54:02;;;;;;;3.58;2.15;;;;;;;4.36;83.61;99303.75;4997656;28;20053;-50
2024/01/21 03:56:29;;;;;;;4.43;2.70;;;;;;;4.39;83.36;99291.81;4995728;28;20042;-48
2024/01/21 03:58:58;;;;;;;3.97;2.00;;;;;;;4.49;83.36;99320.13;5002208;28;20112;-49
2024/01/21 04:01:25;;;;;;;6.20;3.35;;;;;;;4.47;83.90;99323.53;5001887;28;20084;-52
2024/01/21 04:03:52;;;;;;;3.10;1.55;;;;;;;4.52;83.96;99327.00;4997228;28;20093;-48
2024/01/21 04:06:20;;;;;;;4.25;2.03;;;;;;;4.58;83.66;99301.41;4998666;28;20141;-51
2024/01/21 04:08:47;;;;;;;5.30;2.55;;;;;;;4.62;83.83;99321.13;5005188;28;20049;-49
2024/01/21 04:11:13;;;;;;;3.55;1.75;;;;;;;4.70;83.32;99305.78;5002762;28;20058;-52
2024/01/21 04:13:42;;;;;;;4.95;2.25;;;;;;;4.76;83.40;99325.50;4998279;28;20049;-55
2024/01/21 04:16:09;;;;;;;6.32;2.38;;;;;;;4.78;83.73;99321.25;5000891;28;20042;-53
2024/01/21 04:18:36;;;;;;;3.42;1.77;;;;;;;4.85;83.54;99325.59;4999586;28;20546;-51
2024/01/21 04:21:03;;;;;;;3.88;1.75;;;;;;;4.92;83.49;99336.78;4996079;28;20454;-51
2024/01/21 04:23:30;;;;;;;6.05;2.45;;;;;;;4.90;83.59;99346.19;5003124;28;20470;-50
2024/01/21 04:25:57;;;;;;;3.42;1.48;;;;;;;4.95;83.83;99335.94;4997921;28;20123;-49
2024/01/21 04:28:26;;;;;;;2.97;1.77;;;;;;;5.10;83.11;99346.34;5003647;28;20062;-50
2024/01/21 04:30:53;;;;;;;2.90;1.60;;;;;;;5.10;83.99;99348.91;4999898;28;20415;-51
2024/01/21 04:33:20;;;;;;;3.42;1.92;;;;;;;5.14;83.78;99348.06;4999348;28;20104;-51
2024/01/21 04:35:49;;;;;;;4.43;1.80;;;;;;;5.21;83.70;99348.16;5003528;28;20709;-50
2024/01/21 04:38:23;;;;;;;2.47;1.50;;;;;;;5.26;83.34;99331.06;4993839;28;20096;-50
2024/01/21 04:40:52;;;;;;;5.55;2.15;;;;;;;5.26;83.51;99337.06;4996088;28;20049;-50
2024/01/21 04:43:19;;;;;;;1.58;1.25;;;;;;;5.27;83.54;99327.66;4996376;28;20050;-54
2024/01/21 04:45:45;;;;;;;3.60;2.15;;;;;;;5.28;82.96;99329.38;5001493;28;20054;-53
2024/01/21 04:48:13;;;;;;;2.75;1.70;;;;;;;5.25;83.86;99324.22;5002250;28;20052;-49
2024/01/21 04:50:40;;;;;;;2.88;1.23;;;;;;;5.27;84.33;99307.13;4999950;28;20544;-50
2024/01/21 04:53:06;;;;;;;1.92;1.00;;;;;;;5.33;84.21;99307.16;5005262;28;20146;-51
2024/01/21 04:55:34;;;;;;;1.73;1.40;;;;;;;5.36;84.99;99307.16;5000455;28;20104;-53
2024/01/21 04:58:01;;;;;;;2.45;1.60;;;;;;;5.46;84.44;99307.22;5000471;28;20049;-56
2024/01/21 05:00:28;;;;;;;2.85;1.42;;;;;;;5.43;83.83;99305.50;5000320;28;20053;-53
2024/01/21 05:02:57;;;;;;;2.85;1.20;;;;;;;5.43;85.08;99292.66;5001776;28;20073;-54
2024/01/21 05:05:26;;;;;;;2.15;1.70;;;;;;;5.55;84.92;99301.28;4997596;28;20108;-52
2024/01/21 05:07:53;;;;;;;4.72;1.25;;;;;;;5.62;84.40;99309.03;5000417;28;20042;-54
2024/01/21 05:10:20;;;;;;;5.05;1.92;;;;;;;5.66;84.33;99303.06;5006793;28;20050;-56
2024/01/21 05:12:47;;;;;;;1.98;1.10;;;;;;;5.60;85.76;99300.47;5001293;28;20045;-51
2024/01/21 05:15:14;;;;;;;3.55;1.08;;;;;;;5.72;85.07;99303.94;4999269;28;20077;-54
2024/01/21 05:17:40;;;;;;;2.42;1.33;;;;;;;5.69;84.45;99303.91;4992990;28;20132;-50
2024/01/21 05:20:08;;;;;;;2.22;1.35;;;;;;;5.78;84.95;99299.69;5005216;28;20049;-52
2024/01/21 05:22:37;;;;;;;5.30;1.45;;;;;;;5.83;84.11;99302.28;5008609;28;20140;-54
2024/01/21 05:25:05;;;;;;;1.95;1.08;;;;;;;5.86;84.09;99292.03;4997967;28;20056;-56
2024/01/21 05:27:33;;;;;;;2.17;1.65;;;;;;;5.86;85.06;99299.75;4995496;28;20042;-56
2024/01/21 05:30:00;;;;;;;2.10;1.52;;;;;;;5.92;84.65;99304.88;5001893;28;20059;-50
2024/01/21 05:32:27;;;;;;;3.63;1.23;;;;;;;5.97;84.02;99304.03;5000509;28;20046;-55
2024/01/21 05:34:54;;;;;;;2.03;1.23;;;;;;;6.02;83.90;99315.22;4993173;28;20062;-50
2024/01/21 05:37:22;;;;;;;1.38;1.13;;;;;;;6.03;84.17;99304.06;4992701;28;20045;-56
2024/01/21 05:39:49;;;;;;;2.90;1.25;;;;;;;6.03;84.24;99312.69;5001378;28;20046;-50
2024/01/21 05:42:18;;;;;;;2.53;1.17;;;;;;;6.09;82.89;99309.28;5002949;28;20104;-54
2024/01/21 05:44:44;;;;;;;3.40;1.52;;;;;;;6.04;83.81;99313.53;4997657;28;20107;-53
2024/01/21 05:47:11;;;;;;;5.38;1.77;;;;;;;6.13;83.10;99321.31;5000495;28;20046;-49
2024/01/21 05:49:39;;;;;;;3.10;1.23;;;;;;;6.16;82.62;99326.47;4997400;28;20088;-53
2024/01/21 05:52:06;;;;;;;5.70;2.15;;;;;;;6.17;83.81;99312.75;4997335;28;20131;-50
2024/01/21 05:54:33;;;;;;;2.13;1.52;;;;;;;6.21;84.47;99302.47;4999344;28;20050;-54
2024/01/21 05:57:00;;;;;;;1.70;0.77;;;;;;;6.27;84.09;99307.63;4991629;28;20056;-51
2024/01/21 05:59:27;;;;;;;1.48;0.85;;;;;;;6.27;83.50;99315.34;5000348;28;20132;-52
2024/01/21 06:01:54;;;;;;;2.67;1.17;;;;;;;6.34;82.88;99319.63;4996767;28;20112;-55
2024/01/21 06:04:21;;;;;;;2.00;1.05;;;;;;;6.39;83.28;99323.06;4999495;28;20050;-53
2024/01/21 06:06:48;;;;;;;3.75;1.73;;;;;;;6.41;84.30;99336.81;4998161;28;20100;-55
2024/01/21 06:09:16;;;;;;;2.13;1.05;;;;;;;6.41;84.68;99336.81;5004194;28;20149;-53
2024/01/21 06:11:44;;;;;;;4.82;1.33;;;;;;;6.47;84.28;99351.41;4995636;28;20057;-52
2024/01/21 06:14:12;;;;;;;5.07;1.05;;;;;;;6.45;83.77;99352.25;5001767;28;20061;-56
2024/01/21 06:16:40;;;;;;;2.40;1.15;;;;;;;6.47;83.72;99355.69;5006279;28;20132;-51
2024/01/21 06:19:07;;;;;;;1.98;1.25;;;;;;;6.50;83.12;99347.97;4999870;28;20077;-50
2024/01/21 06:21:40;;;;;;;3.30;1.05;;;;;;;6.51;84.60;99341.97;5001883;28;20041;-56
2024/01/21 06:24:07;;;;;;;1.23;0.80;;;;;;;6.56;83.94;99335.13;4997278;28;20146;-52
2024/01/21 06:26:37;;;;;;;1.83;0.73;;;;;;;6.65;83.79;99335.16;5001330;28;20045;-49
2024/01/21 06:29:05;;;;;;;2.28;0.93;;;;;;;6.65;84.91;99348.00;4999145;28;20411;-48
2024/01/21 06:31:32;;;;;;;2.03;0.98;;;;;;;6.74;83.82;99344.59;5002897;28;20123;-52
2024/01/21 06:33:59;;;;;;;2.70;0.88;;;;;;;6.77;83.94;99330.88;4993759;28;20549;-54
2024/01/21 06:36:26;;;;;;;2.95;0.88;;;;;;;6.79;85.17;99331.75;5002477;28;20495;-54
2024/01/21 06:38:53;;;;;;;1.65;0.70;;;;;;;6.82;84.03;99336.88;4996614;28;20081;-54
2024/01/21 06:41:21;;;;;;;2.03;1.02;;;;;;;6.83;84.86;99338.63;4996596;28;20046;-54
2024/01/21 06:43:48;;;;;;;3.72;0.98;;;;;;;6.86;83.11;99348.06;4999069;28;20590;-50
2024/01/21 06:46:16;;;;;;;2.10;0.65;;;;;;;6.90;84.09;99352.34;4997232;28;20077;-50
2024/01/21 06:48:43;;;;;;;3.00;0.98;;;;;;;6.92;84.39;99338.63;5000580;28;20555;-51
2024/01/21 06:51:11;;;;;;;6.15;1.13;;;;;;;7.01;83.52;99336.91;4994508;28;20098;-52
2024/01/21 06:53:38;;;;;;;1.40;0.38;;;;;;;7.02;84.10;99338.59;4996516;28;20414;-53
2024/01/21 06:56:07;;;;;;;3.15;0.85;;;;;;;6.99;84.65;99336.06;4988439;28;20144;-50
2024/01/21 06:58:34;;;;;;;2.45;0.85;;;;;;;7.02;84.70;99334.31;4998749;28;20045;-51
2024/01/21 07:01:01;;;;;;;3.92;0.80;;;;;;;7.07;83.79;99334.34;5000658;28;20085;-52
2024/01/21 07:03:29;;;;;;;0.43;0.30;;;;;;;7.06;84.54;99336.03;4990843;28;20149;-57
2024/01/21 07:05:56;;;;;;;3.22;0.93;;;;;;;7.07;83.50;99342.06;5000651;28;20077;-52
2024/01/21 07:08:23;;;;;;;3.05;1.00;;;;;;;7.12;83.14;99334.34;4996180;28;20049;-52
2024/01/21 07:10:50;;;;;;;3.50;0.82;;;;;;;7.09;83.40;99340.34;5001711;28;20058;-52
2024/01/21 07:13:17;;;;;;;4.80;0.80;;;;;;;7.12;83.69;99349.81;4996939;28;20062;-54
2024/01/21 07:15:44;;;;;;;4.25;1.02;;;;;;;7.10;83.66;99362.69;4999930;28;20482;-54
2024/01/21 07:18:11;;;;;;;3.42;0.60;;;;;;;7.14;83.74;99364.38;5005615;28;20041;-50
2024/01/21 07:20:38;;;;;;;4.28;0.68;;;;;;;7.15;83.25;99358.38;4996494;28;20050;-49
2024/01/21 07:23:06;;;;;;;1.88;0.40;;;;;;;7.14;82.76;99361.81;5006477;28;20054;-53
2024/01/21 07:25:34;;;;;;;3.40;0.80;;;;;;;7.13;83.38;99356.66;4999614;28;20149;-51
2024/01/21 07:28:02;;;;;;;2.17;0.52;;;;;;;7.12;82.30;99366.09;5007906;28;20554;-53
2024/01/21 07:30:29;;;;;;;1.25;0.80;;;;;;;7.14;82.96;99374.69;5006632;28;20053;-56
2024/01/21 07:32:57;;;;;;;2.65;0.60;;;;;;;7.14;83.51;99374.69;5004182;28;20064;-50
2024/01/21 07:35:28;;;;;;;1.48;0.75;;;;;;;7.16;82.75;99372.97;4999562;28;20079;-53
2024/01/21 07:37:55;;;;;;;7.15;1.00;;;;;;;7.19;83.20;99387.53;4997426;28;20050;-53
2024/01/21 07:40:22;;;;;;;6.43;0.57;;;;;;;7.18;82.03;99376.41;4997549;28;20053;-57
2024/01/21 07:42:49;;;;;;;4.25;0.90;;;;;;;7.18;82.72;99370.38;4998271;28;20414;-55
2024/01/21 07:45:17;;;;;;;2.17;0.73;;;;;;;7.19;82.31;99352.34;5001502;28;20061;-53
2024/01/21 07:47:46;;;;;;;2.15;0.88;;;;;;;7.18;81.97;99366.09;4994338;28;20081;-53
2024/01/21 07:50:15;;;;;;;3.03;0.60;;;;;;;7.22;82.67;99366.94;4998707;28;20129;-51
2024/01/21 07:52:43;;;;;;;3.88;0.50;;;;;;;7.23;81.69;99372.97;4997156;28;20064;-51
2024/01/21 07:55:10;;;;;;;2.70;1.92;;;;;;;7.27;81.79;99377.25;4994836;28;20046;-54
2024/01/21 07:57:39;;;;;;;2.55;0.85;;;;;;;7.24;82.85;99374.69;5000068;28;20064;-50
2024/01/21 08:00:08;;;;;;;5.65;1.13;;;;;;;7.29;81.56;99378.09;4994524;28;20054;-53
2024/01/21 08:02:35;;;;;;;4.68;0.73;;;;;;;7.31;82.30;99366.97;4999049;28;20042;-48
2024/01/21 08:05:02;;;;;;;4.47;0.93;;;;;;;7.32;81.57;99367.81;4998160;28;20042;-50
2024/01/21 08:07:31;;;;;;;1.17;0.93;;;;;;;7.34;81.23;99371.25;4997885;28;20120;-50
2024/01/21 08:09:59;;;;;;;5.32;0.82;;;;;;;7.34;82.14;99371.25;4996988;28;20050;-50
2024/01/21 08:12:27;;;;;;;2.72;0.60;;;;;;;7.34;80.66;99366.09;5000401;28;20132;-54
2024/01/21 08:14:54;;;;;;;1.55;0.80;;;;;;;7.35;82.33;99378.13;4989010;28;20053;-56
2024/01/21 08:17:21;;;;;;;3.55;0.70;;;;;;;7.40;82.07;99376.38;4994333;28;20053;-53
2024/01/21 08:19:57;;;;;;;7.30;0.80;;;;;;;7.39;81.18;99374.69;5000990;28;20486;-51
2024/01/21 08:22:24;;;;;;;6.43;1.17;;;;;;;7.40;81.59;99381.53;4999524;28;20467;-53
2024/01/21 08:24:54;;;;;;;6.00;1.45;;;;;;;7.44;80.44;99392.72;4999882;28;20104;-50
2024/01/21 08:27:21;;;;;;;5.10;0.73;;;;;;;7.47;80.46;99395.31;4999577;28;20088;-51
2024/01/21 08:29:48;;;;;;;1.98;0.47;;;;;;;7.44;81.18;99393.56;4994669;28;20078;-52
2024/01/21 08:32:15;;;;;;;4.45;0.98;;;;;;;7.51;81.56;99383.25;4994103;28;20058;-54
2024/01/21 08:34:42;;;;;;;5.85;1.10;;;;;;;7.53;80.79;99391.88;4991859;28;20054;-53
2024/01/21 08:37:10;;;;;;;6.10;0.98;;;;;;;7.56;81.13;99405.59;4991459;28;20145;-55
2024/01/21 08:39:37;;;;;;;6.80;0.90;;;;;;;7.59;81.53;99399.56;4992393;28;20590;-47
2024/01/21 08:42:08;;;;;;;4.03;0.70;;;;;;;7.59;80.61;99407.31;4993584;28;20050;-50
2024/01/21 08:44:35;;;;;;;8.85;1.00;;;;;;;7.62;80.28;99412.47;4993822;28;20146;-52
2024/01/21 08:47:02;;;;;;;6.85;1.20;;;;;;;7.65;81.49;99404.72;4991004;28;20046;-58
2024/01/21 08:49:29;;;;;;;10.07;0.88;;;;;;;7.67;80.01;99397.00;4993144;28;20146;-55
2024/01/21 08:51:56;;;;;;;5.55;0.65;;;;;;;7.72;81.02;99408.16;4992304;28;20080;-54
2024/01/21 08:54:25;;;;;;;8.88;0.93;;;;;;;7.79;81.10;99419.31;4993450;28;20157;-51
2024/01/21 08:56:52;;;;;;;5.43;1.13;;;;;;;7.79;81.26;99425.34;4989881;28;20133;-48
2024/01/21 08:59:19;;;;;;;11.02;1.73;;;;;;;7.88;80.53;99433.91;4998473;28;20084;-52
2024/01/21 09:01:46;;;;;;;8.65;1.30;;;;;;;7.88;80.20;99439.06;4990793;28;20050;-49
2024/01/21 09:04:15;;;;;;;7.55;0.90;;;;;;;7.95;80.96;99415.00;4991525;28;20144;-54
2024/01/21 09:06:42;;;;;;;8.20;1.23;;;;;;;8.00;81.00;99415.00;4993120;28;20145;-51
2024/01/21 09:09:12;;;;;;;8.70;1.30;;;;;;;8.06;79.83;99412.38;4988772;28;20050;-48
2024/01/21 09:11:40;;;;;;;11.65;1.13;;;;;;;8.13;80.75;99413.22;4983998;28;20136;-50
2024/01/21 09:14:07;;;;;;;2.45;0.30;;;;;;;8.17;80.47;99428.69;4993260;28;20111;-52
2024/01/21 09:16:34;;;;;;;14.00;2.17;;;;;;;8.23;79.66;99426.09;4989504;28;20050;-51
2024/01/21 09:19:02;;;;;;;9.23;1.30;;;;;;;8.27;80.44;99436.41;4983012;28;20153;-54
2024/01/21 09:21:31;;;;;;;12.07;1.15;;;;;;;8.31;79.50;99427.78;4985154;28;20047;-50
2024/01/21 09:24:03;;;;;;;4.93;2.08;;;;;;;8.30;79.98;99426.94;4981737;28;20054;-53
2024/01/21 09:26:32;;;;;;;6.18;1.20;;;;;;;8.31;80.23;99446.69;4999304;28;20081;-51
2024/01/21 09:29:00;;;;;;;2.42;0.60;;;;;;;8.39;79.14;99441.53;4986837;28;20120;-51
2024/01/21 09:31:27;;;;;;;3.97;1.05;;;;;;;8.49;79.19;99448.34;4989898;28;20062;-54
2024/01/21 09:33:56;;;;;;;10.63;1.52;;;;;;;8.64;78.73;99456.09;4992663;28;20046;-51
2024/01/21 09:36:24;;;;;;;4.15;0.63;;;;;;;8.69;78.74;99470.69;4990755;28;20134;-57
2024/01/21 09:38:51;;;;;;;10.75;0.85;;;;;;;8.77;79.10;99464.63;4991283;28;20452;-52
2024/01/21 09:44:28;;;;;;;12.05;1.58;;;;;;;8.99;78.04;99478.31;5045451;27;20398;-55
2024/01/21 09:46:57;;;;;;;9.85;0.93;;;;;;;9.05;78.55;99472.25;5012841;28;20058;-54
2024/01/21 09:49:25;;;;;;;3.72;0.93;;;;;;;9.04;77.99;99481.72;5011505;28;20049;-56
2024/01/21 09:51:54;;;;;;;6.10;1.35;;;;;;;9.09;77.74;99489.44;5012975;28;20050;-52
2024/01/21 09:54:23;;;;;;;12.30;1.75;;;;;;;9.04;77.49;99486.88;5013491;28;20053;-54
2024/01/21 09:56:50;;;;;;;11.02;1.98;;;;;;;9.06;77.45;99505.81;5016435;28;20125;-53
2024/01/21 09:59:18;;;;;;;9.60;1.77;;;;;;;9.02;77.79;99505.84;5010718;28;20061;-51
2024/01/21 10:01:45;;;;;;;7.88;1.63;;;;;;;9.01;77.33;99502.38;5011766;28;20049;-54
2024/01/21 10:04:14;;;;;;;8.70;1.55;;;;;;;8.98;77.63;99482.59;5012941;28;20046;-54
2024/01/21 10:06:42;;;;;;;11.50;1.63;;;;;;;9.09;77.49;99489.44;5010490;28;20049;-54
2024/01/21 10:09:16;;;;;;;10.30;1.45;;;;;;;9.10;77.13;99470.47;5008908;28;20058;-55
2024/01/21 10:12:00;;;;;;;6.20;1.65;;;;;;;9.10;76.88;99480.81;5009095;28;20045;-54
2024/01/21 10:14:28;;;;;;;8.27;1.63;;;;;;;9.21;76.96;99483.31;5013003;28;20550;-51
2024/01/21 10:16:55;;;;;;;4.75;1.50;;;;;;;9.31;76.66;99463.44;5013649;28;20060;-43
2024/01/21 10:22:08;;;;;;;4.80;2.40;;;;;;;9.27;76.36;99467.78;5063881;27;20432;-59
2024/01/21 10:24:38;;;;;;;12.45;2.72;;;;;;;9.28;76.35;99486.75;5041243;28;20140;-53
2024/01/21 10:27:07;;;;;;;9.68;3.33;;;;;;;9.36;76.31;99497.91;5039895;28;20057;-49
2024/01/21 10:29:41;;;;;;;12.88;2.92;;;;;;;9.37;76.22;99499.59;5070471;28;20118;-53
2024/01/21 10:32:10;;;;;;;3.90;1.98;;;;;;;9.32;75.78;99501.38;5071998;28;20053;-54
2024/01/21 10:34:40;;;;;;;8.95;2.35;;;;;;;9.32;76.16;99485.88;5035927;28;20041;-53
2024/01/21 10:37:07;;;;;;;10.05;3.92;;;;;;;9.32;76.17;99496.19;5040099;28;20124;-52
2024/01/21 10:39:37;;;;;;;10.32;2.78;;;;;;;9.30;75.98;99482.41;5041171;28;20045;-52
2024/01/21 10:42:06;;;;;;;6.88;1.92;;;;;;;9.33;76.44;99500.50;5037645;28;20501;-50
2024/01/21 10:44:35;;;;;;;15.32;2.38;;;;;;;9.36;76.01;99492.72;5035849;28;20045;-53
2024/01/21 10:47:04;;;;;;;10.13;2.90;;;;;;;9.38;76.14;99484.09;5040269;28;20056;-56
2024/01/21 10:49:32;;;;;;;6.57;2.42;;;;;;;9.43;76.49;99468.56;5035606;28;20163;-49
2024/01/21 10:52:00;;;;;;;5.70;2.38;;;;;;;9.49;76.36;99440.06;5035270;28;20135;-52
2024/01/21 10:54:28;;;;;;;6.63;2.28;;;;;;;9.51;75.79;99440.91;5035672;28;20052;-52
2024/01/21 10:57:00;;;;;;;6.30;2.50;;;;;;;9.46;75.83;99427.16;5034431;28;20451;-51
2024/01/21 10:59:29;;;;;;;8.05;2.47;;;;;;;9.61;75.18;99425.31;5037225;28;20053;-56
2024/01/21 11:01:56;;;;;;;7.80;2.53;;;;;;;9.67;74.86;99430.44;5033881;28;20100;-50
2024/01/21 11:04:23;;;;;;;15.15;2.90;;;;;;;9.71;75.18;99432.13;5032342;28;20569;-49
2024/01/21 11:06:53;;;;;;;12.95;3.28;;;;;;;9.69;74.62;99422.66;5040587;28;20056;-46
2024/01/21 11:09:23;;;;;;;9.80;2.78;;;;;;;9.72;75.33;99438.13;5059232;28;20056;-49
2024/01/21 11:11:52;;;;;;;10.38;2.22;;;;;;;9.76;74.90;99430.34;5057736;28;20049;-50
2024/01/21 11:14:39;;;;;;;11.98;2.80;;;;;;;9.80;74.48;99404.47;5061745;28;20122;-51
2024/01/21 11:17:10;;;;;;;8.90;2.72;;;;;;;9.81;74.61;99411.34;5059278;28;20063;-52
2024/01/21 11:19:54;;;;;;;4.97;2.40;;;;;;;9.76;74.71;99407.06;5060643;28;20684;-49
2024/01/21 11:22:23;;;;;;;12.57;3.75;;;;;;;9.84;75.40;99411.31;5058680;28;20083;-51
2024/01/21 11:24:53;;;;;;;5.07;2.30;;;;;;;9.82;74.51;99413.03;5047654;28;20056;-56
2024/01/21 11:29:58;;;;;;;10.02;3.40;;;;;;;9.75;75.08;99407.94;5081438;27;20410;-53
2024/01/21 11:32:28;;;;;;;7.68;0.93;;;;;;;9.79;74.96;99407.94;5038556;28;20056;-54
2024/01/21 11:35:05;;;;;;;6.90;0.90;;;;;;;9.82;75.00;99402.69;5041746;28;20056;-56
2024/01/21 11:37:33;;;;;;;13.98;4.20;;;;;;;9.79;75.27;99398.41;5053038;28;20062;-53
2024/01/21 11:40:03;;;;;;;9.63;2.65;;;;;;;9.85;74.87;99411.28;5052361;28;20653;-56
2024/01/21 11:42:34;;;;;;;8.30;3.13;;;;;;;9.83;74.91;99401.84;5028019;28;20049;-58
2024/01/21 11:45:03;;;;;;;8.77;0.80;;;;;;;9.84;74.54;99401.84;5025902;28;20053;-57
2024/01/21 11:47:31;;;;;;;10.65;3.30;;;;;;;9.89;74.42;99399.19;5017522;28;20613;-55
2024/01/21 11:50:00;;;;;;;4.25;2.33;;;;;;;9.84;75.00;99395.78;5017586;28;20491;-54
2024/01/21 11:52:27;;;;;;;13.02;2.13;;;;;;;9.89;74.83;99419.88;5015168;28;20052;-55